sensor_id;sensor_type;location;lat;lon;timestamp;temperature;humidity
78054;DHT22;67726;45.636;11.752;2024-02-28T00:00:34;12.40;99.90
78054;DHT22;67726;45.636;11.752;2024-02-28T00:03:00;12.40;99.90
78054;DHT22;67726;45.636;11.752;2024-02-28T00:05:25;12.20;99.90
78054;DHT22;67726;45.636;11.752;2024-02-28T00:07:51;12.30;99.90
78054;DHT22;67726;45.636;11.752;2024-02-28T00:10:18;12.40;99.90
78054;DHT22;67726;45.636;11.752;2024-02-28T00:12:44;12.40;99.90
78054;DHT22;67726;45.636;11.752;2024-02-28T00:15:10;12.40;99.90
78054;DHT22;67726;45.636;11.752;2024-02-28T00:17:39;12.40;99.90
78054;DHT22;67726;45.636;11.752;2024-02-28T00:20:09;12.40;99.90
78054;DHT22;67726;45.636;11.752;2024-02-28T00:22:38;12.30;99.90
78054;DHT22;67726;45.636;11.752;2024-02-28T00:25:04;12.50;99.90
78054;DHT22;67726;45.636;11.752;2024-02-28T00:27:32;12.50;99.90
78054;DHT22;67726;45.636;11.752;2024-02-28T00:29:58;12.40;99.90
78054;DHT22;67726;45.636;11.752;2024-02-28T00:32:23;12.40;99.90
78054;DHT22;67726;45.636;11.752;2024-02-28T00:34:49;12.40;99.90
78054;DHT22;67726;45.636;11.752;2024-02-28T00:37:15;12.40;99.90
78054;DHT22;67726;45.636;11.752;2024-02-28T00:39:40;12.40;99.90
78054;DHT22;67726;45.636;11.752;2024-02-28T00:42:06;12.30;99.90
78054;DHT22;67726;45.636;11.752;2024-02-28T00:44:32;12.40;99.90
78054;DHT22;67726;45.636;11.752;2024-02-28T00:46:57;12.30;99.90
78054;DHT22;67726;45.636;11.752;2024-02-28T00:49:23;12.30;99.90
78054;DHT22;67726;45.636;11.752;2024-02-28T00:51:49;12.30;99.90
78054;DHT22;67726;45.636;11.752;2024-02-28T00:54:14;12.30;99.90
78054;DHT22;67726;45.636;11.752;2024-02-28T00:56:40;12.20;99.90
78054;DHT22;67726;45.636;11.752;2024-02-28T00:59:06;12.20;99.90
78054;DHT22;67726;45.636;11.752;2024-02-28T01:01:32;12.20;99.90
78054;DHT22;67726;45.636;11.752;2024-02-28T01:03:58;12.20;99.90
78054;DHT22;67726;45.636;11.752;2024-02-28T01:06:23;12.10;99.90
78054;DHT22;67726;45.636;11.752;2024-02-28T01:08:49;12.10;99.90
78054;DHT22;67726;45.636;11.752;2024-02-28T01:11:15;12.30;99.90
78054;DHT22;67726;45.636;11.752;2024-02-28T01:13:41;12.20;99.90
78054;DHT22;67726;45.636;11.752;2024-02-28T01:16:06;12.30;99.90
78054;DHT22;67726;45.636;11.752;2024-02-28T01:18:32;12.20;99.90
78054;DHT22;67726;45.636;11.752;2024-02-28T01:20:58;12.10;99.90
78054;DHT22;67726;45.636;11.752;2024-02-28T01:23:23;12.20;99.90
78054;DHT22;67726;45.636;11.752;2024-02-28T01:25:49;12.00;99.90
78054;DHT22;67726;45.636;11.752;2024-02-28T01:28:15;12.10;99.90
78054;DHT22;67726;45.636;11.752;2024-02-28T01:30:40;12.00;99.90
78054;DHT22;67726;45.636;11.752;2024-02-28T01:33:06;12.00;99.90
78054;DHT22;67726;45.636;11.752;2024-02-28T01:35:31;12.10;99.90
78054;DHT22;67726;45.636;11.752;2024-02-28T01:37:57;12.20;99.90
78054;DHT22;67726;45.636;11.752;2024-02-28T01:40:23;12.20;99.90
78054;DHT22;67726;45.636;11.752;2024-02-28T01:42:48;12.10;99.90
78054;DHT22;67726;45.636;11.752;2024-02-28T01:45:14;12.30;99.90
78054;DHT22;67726;45.636;11.752;2024-02-28T01:47:43;12.10;99.90
78054;DHT22;67726;45.636;11.752;2024-02-28T01:50:09;12.20;99.90
78054;DHT22;67726;45.636;11.752;2024-02-28T01:52:40;12.10;99.90
78054;DHT22;67726;45.636;11.752;2024-02-28T01:57:37;12.30;99.90
78054;DHT22;67726;45.636;11.752;2024-02-28T02:00:04;12.40;99.90
78054;DHT22;67726;45.636;11.752;2024-02-28T02:02:30;12.40;99.90
78054;DHT22;67726;45.636;11.752;2024-02-28T02:04:56;12.40;99.90
78054;DHT22;67726;45.636;11.752;2024-02-28T02:07:23;12.50;99.90
78054;DHT22;67726;45.636;11.752;2024-02-28T02:09:49;12.50;99.90
78054;DHT22;67726;45.636;11.752;2024-02-28T02:12:15;12.50;99.90
78054;DHT22;67726;45.636;11.752;2024-02-28T02:14:41;12.60;99.90
78054;DHT22;67726;45.636;11.752;2024-02-28T02:17:12;12.60;99.90
78054;DHT22;67726;45.636;11.752;2024-02-28T02:19:38;12.60;99.90
78054;DHT22;67726;45.636;11.752;2024-02-28T02:22:05;12.70;99.90
78054;DHT22;67726;45.636;11.752;2024-02-28T02:24:33;12.60;99.90
78054;DHT22;67726;45.636;11.752;2024-02-28T02:26:59;12.70;99.90
78054;DHT22;67726;45.636;11.752;2024-02-28T02:29:25;12.60;99.90
78054;DHT22;67726;45.636;11.752;2024-02-28T02:31:50;12.60;99.90
78054;DHT22;67726;45.636;11.752;2024-02-28T02:34:16;12.60;99.90
78054;DHT22;67726;45.636;11.752;2024-02-28T02:36:41;12.50;99.90
78054;DHT22;67726;45.636;11.752;2024-02-28T02:39:07;12.40;99.90
78054;DHT22;67726;45.636;11.752;2024-02-28T02:41:34;12.40;99.90
78054;DHT22;67726;45.636;11.752;2024-02-28T02:43:59;12.50;99.90
78054;DHT22;67726;45.636;11.752;2024-02-28T02:46:25;12.50;99.90
78054;DHT22;67726;45.636;11.752;2024-02-28T02:48:50;12.40;99.90
78054;DHT22;67726;45.636;11.752;2024-02-28T02:51:19;12.40;99.90
78054;DHT22;67726;45.636;11.752;2024-02-28T02:53:45;12.40;99.90
78054;DHT22;67726;45.636;11.752;2024-02-28T02:56:10;12.50;99.90
78054;DHT22;67726;45.636;11.752;2024-02-28T02:58:36;12.40;99.90
78054;DHT22;67726;45.636;11.752;2024-02-28T03:01:02;12.30;99.90
78054;DHT22;67726;45.636;11.752;2024-02-28T03:03:28;12.40;99.90
78054;DHT22;67726;45.636;11.752;2024-02-28T03:06:06;12.40;99.90
78054;DHT22;67726;45.636;11.752;2024-02-28T03:08:31;12.30;99.90
78054;DHT22;67726;45.636;11.752;2024-02-28T03:10:58;12.40;99.90
78054;DHT22;67726;45.636;11.752;2024-02-28T03:13:23;12.30;99.90
78054;DHT22;67726;45.636;11.752;2024-02-28T03:15:49;12.40;99.90
78054;DHT22;67726;45.636;11.752;2024-02-28T03:18:15;12.20;99.90
78054;DHT22;67726;45.636;11.752;2024-02-28T03:20:40;12.30;99.90
78054;DHT22;67726;45.636;11.752;2024-02-28T03:23:06;12.40;99.90
78054;DHT22;67726;45.636;11.752;2024-02-28T03:25:32;12.30;99.90
78054;DHT22;67726;45.636;11.752;2024-02-28T03:27:59;12.10;99.90
78054;DHT22;67726;45.636;11.752;2024-02-28T03:30:25;12.20;99.90
78054;DHT22;67726;45.636;11.752;2024-02-28T03:32:51;12.20;99.90
78054;DHT22;67726;45.636;11.752;2024-02-28T03:35:16;12.20;99.90
78054;DHT22;67726;45.636;11.752;2024-02-28T03:37:42;12.30;99.90
78054;DHT22;67726;45.636;11.752;2024-02-28T03:40:08;12.20;99.90
78054;DHT22;67726;45.636;11.752;2024-02-28T03:50:54;12.00;99.90
78054;DHT22;67726;45.636;11.752;2024-02-28T03:53:20;12.00;99.90
78054;DHT22;67726;45.636;11.752;2024-02-28T03:55:46;11.90;99.90
78054;DHT22;67726;45.636;11.752;2024-02-28T03:58:12;11.90;99.90
78054;DHT22;67726;45.636;11.752;2024-02-28T04:00:38;11.70;99.90
78054;DHT22;67726;45.636;11.752;2024-02-28T04:03:05;11.70;99.90
78054;DHT22;67726;45.636;11.752;2024-02-28T04:05:31;11.70;99.90
78054;DHT22;67726;45.636;11.752;2024-02-28T04:07:57;11.80;99.90
78054;DHT22;67726;45.636;11.752;2024-02-28T04:10:22;11.60;99.90
78054;DHT22;67726;45.636;11.752;2024-02-28T04:12:48;11.60;99.90
78054;DHT22;67726;45.636;11.752;2024-02-28T04:15:14;11.70;99.90
78054;DHT22;67726;45.636;11.752;2024-02-28T04:17:40;11.60;99.90
78054;DHT22;67726;45.636;11.752;2024-02-28T04:20:10;11.70;99.90
78054;DHT22;67726;45.636;11.752;2024-02-28T04:22:36;11.50;99.90
78054;DHT22;67726;45.636;11.752;2024-02-28T04:25:01;11.60;99.90
78054;DHT22;67726;45.636;11.752;2024-02-28T04:27:27;11.60;99.90
78054;DHT22;67726;45.636;11.752;2024-02-28T04:29:53;11.50;99.90
78054;DHT22;67726;45.636;11.752;2024-02-28T04:32:18;11.50;99.90
78054;DHT22;67726;45.636;11.752;2024-02-28T04:34:44;11.50;99.90
78054;DHT22;67726;45.636;11.752;2024-02-28T04:37:10;11.70;99.90
78054;DHT22;67726;45.636;11.752;2024-02-28T04:39:36;11.60;99.90
78054;DHT22;67726;45.636;11.752;2024-02-28T04:42:02;11.60;99.90
78054;DHT22;67726;45.636;11.752;2024-02-28T04:44:27;11.70;99.90
78054;DHT22;67726;45.636;11.752;2024-02-28T04:46:53;11.60;99.90
78054;DHT22;67726;45.636;11.752;2024-02-28T04:49:19;11.60;99.90
78054;DHT22;67726;45.636;11.752;2024-02-28T04:51:45;11.80;99.90
78054;DHT22;67726;45.636;11.752;2024-02-28T04:54:11;11.70;99.90
78054;DHT22;67726;45.636;11.752;2024-02-28T04:56:40;11.80;99.90
78054;DHT22;67726;45.636;11.752;2024-02-28T04:59:07;11.80;99.90
78054;DHT22;67726;45.636;11.752;2024-02-28T05:01:32;11.70;99.90
78054;DHT22;67726;45.636;11.752;2024-02-28T05:03:59;11.80;99.90
78054;DHT22;67726;45.636;11.752;2024-02-28T05:06:24;11.80;99.90
78054;DHT22;67726;45.636;11.752;2024-02-28T05:08:50;11.80;99.90
78054;DHT22;67726;45.636;11.752;2024-02-28T05:11:16;11.80;99.90
78054;DHT22;67726;45.636;11.752;2024-02-28T05:13:41;11.90;99.90
78054;DHT22;67726;45.636;11.752;2024-02-28T05:16:15;11.90;99.90
78054;DHT22;67726;45.636;11.752;2024-02-28T05:18:41;11.80;99.90
78054;DHT22;67726;45.636;11.752;2024-02-28T05:21:07;11.80;99.90
78054;DHT22;67726;45.636;11.752;2024-02-28T05:23:33;11.80;99.90
78054;DHT22;67726;45.636;11.752;2024-02-28T05:25:59;11.70;99.90
78054;DHT22;67726;45.636;11.752;2024-02-28T05:28:29;11.80;99.90
78054;DHT22;67726;45.636;11.752;2024-02-28T05:30:56;11.80;99.90
78054;DHT22;67726;45.636;11.752;2024-02-28T05:33:21;11.80;99.90
78054;DHT22;67726;45.636;11.752;2024-02-28T05:35:47;11.60;99.90
78054;DHT22;67726;45.636;11.752;2024-02-28T05:38:13;11.60;99.90
78054;DHT22;67726;45.636;11.752;2024-02-28T05:40:38;11.50;99.90
78054;DHT22;67726;45.636;11.752;2024-02-28T05:43:04;11.60;99.90
78054;DHT22;67726;45.636;11.752;2024-02-28T05:45:30;11.50;99.90
78054;DHT22;67726;45.636;11.752;2024-02-28T05:47:55;11.50;99.90
78054;DHT22;67726;45.636;11.752;2024-02-28T05:50:21;11.50;99.90
78054;DHT22;67726;45.636;11.752;2024-02-28T05:52:47;11.50;99.90
78054;DHT22;67726;45.636;11.752;2024-02-28T05:55:12;11.50;99.90
78054;DHT22;67726;45.636;11.752;2024-02-28T05:57:38;11.50;99.90
78054;DHT22;67726;45.636;11.752;2024-02-28T06:00:04;11.60;99.90
78054;DHT22;67726;45.636;11.752;2024-02-28T06:02:36;11.40;99.90
78054;DHT22;67726;45.636;11.752;2024-02-28T06:05:02;11.40;99.90
78054;DHT22;67726;45.636;11.752;2024-02-28T06:07:28;11.50;99.90
78054;DHT22;67726;45.636;11.752;2024-02-28T06:09:54;11.50;99.90
78054;DHT22;67726;45.636;11.752;2024-02-28T06:12:20;11.40;99.90
78054;DHT22;67726;45.636;11.752;2024-02-28T06:14:45;11.30;99.90
78054;DHT22;67726;45.636;11.752;2024-02-28T06:17:11;11.30;99.90
78054;DHT22;67726;45.636;11.752;2024-02-28T06:19:36;11.30;99.90
78054;DHT22;67726;45.636;11.752;2024-02-28T06:22:02;11.20;99.90
78054;DHT22;67726;45.636;11.752;2024-02-28T06:24:28;11.30;99.90
78054;DHT22;67726;45.636;11.752;2024-02-28T06:26:54;11.20;99.90
78054;DHT22;67726;45.636;11.752;2024-02-28T06:29:19;11.10;99.90
78054;DHT22;67726;45.636;11.752;2024-02-28T06:31:53;11.10;99.90
78054;DHT22;67726;45.636;11.752;2024-02-28T06:34:19;11.20;99.90
78054;DHT22;67726;45.636;11.752;2024-02-28T06:37:01;11.10;99.90
78054;DHT22;67726;45.636;11.752;2024-02-28T06:39:27;11.10;99.90
78054;DHT22;67726;45.636;11.752;2024-02-28T06:41:53;11.10;99.90
78054;DHT22;67726;45.636;11.752;2024-02-28T06:44:19;11.10;99.90
78054;DHT22;67726;45.636;11.752;2024-02-28T06:46:44;11.20;99.90
78054;DHT22;67726;45.636;11.752;2024-02-28T06:49:10;11.20;99.90
78054;DHT22;67726;45.636;11.752;2024-02-28T06:51:35;11.10;99.90
78054;DHT22;67726;45.636;11.752;2024-02-28T06:54:02;11.10;99.90
78054;DHT22;67726;45.636;11.752;2024-02-28T06:56:27;11.30;99.90
78054;DHT22;67726;45.636;11.752;2024-02-28T06:58:53;11.30;99.90
78054;DHT22;67726;45.636;11.752;2024-02-28T07:01:18;11.40;99.90
78054;DHT22;67726;45.636;11.752;2024-02-28T07:03:44;11.40;99.90
78054;DHT22;67726;45.636;11.752;2024-02-28T07:06:11;11.40;99.90
78054;DHT22;67726;45.636;11.752;2024-02-28T07:08:37;11.40;99.90
78054;DHT22;67726;45.636;11.752;2024-02-28T07:11:03;11.50;99.90
78054;DHT22;67726;45.636;11.752;2024-02-28T07:13:29;11.50;99.90
78054;DHT22;67726;45.636;11.752;2024-02-28T07:15:57;11.40;99.90
78054;DHT22;67726;45.636;11.752;2024-02-28T07:18:24;11.40;99.90
78054;DHT22;67726;45.636;11.752;2024-02-28T07:20:54;11.40;99.90
78054;DHT22;67726;45.636;11.752;2024-02-28T07:23:35;11.40;99.90
78054;DHT22;67726;45.636;11.752;2024-02-28T07:26:03;11.30;99.90
78054;DHT22;67726;45.636;11.752;2024-02-28T07:31:00;11.40;99.90
78054;DHT22;67726;45.636;11.752;2024-02-28T07:33:25;11.30;99.90
78054;DHT22;67726;45.636;11.752;2024-02-28T07:35:52;11.40;99.90
78054;DHT22;67726;45.636;11.752;2024-02-28T07:38:18;11.50;99.90
78054;DHT22;67726;45.636;11.752;2024-02-28T07:40:47;11.40;99.90
78054;DHT22;67726;45.636;11.752;2024-02-28T07:43:13;11.60;99.90
78054;DHT22;67726;45.636;11.752;2024-02-28T07:45:39;11.60;99.90
78054;DHT22;67726;45.636;11.752;2024-02-28T07:48:05;11.60;99.90
78054;DHT22;67726;45.636;11.752;2024-02-28T07:50:31;11.60;99.90
78054;DHT22;67726;45.636;11.752;2024-02-28T07:52:57;11.60;99.90
78054;DHT22;67726;45.636;11.752;2024-02-28T07:55:22;11.70;99.90
78054;DHT22;67726;45.636;11.752;2024-02-28T07:57:53;11.60;99.90
78054;DHT22;67726;45.636;11.752;2024-02-28T08:00:19;11.60;99.90
78054;DHT22;67726;45.636;11.752;2024-02-28T08:02:45;11.70;99.90
78054;DHT22;67726;45.636;11.752;2024-02-28T08:05:11;11.70;99.90
78054;DHT22;67726;45.636;11.752;2024-02-28T08:07:36;11.80;99.90
78054;DHT22;67726;45.636;11.752;2024-02-28T08:10:03;11.80;99.90
78054;DHT22;67726;45.636;11.752;2024-02-28T08:12:31;11.80;99.90
78054;DHT22;67726;45.636;11.752;2024-02-28T08:14:57;11.90;99.90
78054;DHT22;67726;45.636;11.752;2024-02-28T08:17:23;11.80;99.90
78054;DHT22;67726;45.636;11.752;2024-02-28T08:19:49;11.90;99.90
78054;DHT22;67726;45.636;11.752;2024-02-28T08:22:14;11.90;99.90
78054;DHT22;67726;45.636;11.752;2024-02-28T08:24:40;11.90;99.90
78054;DHT22;67726;45.636;11.752;2024-02-28T08:27:06;11.90;99.90
78054;DHT22;67726;45.636;11.752;2024-02-28T08:29:32;11.90;99.90
78054;DHT22;67726;45.636;11.752;2024-02-28T08:31:58;11.90;99.90
78054;DHT22;67726;45.636;11.752;2024-02-28T08:34:27;11.90;99.90
78054;DHT22;67726;45.636;11.752;2024-02-28T08:39:20;11.90;99.90
78054;DHT22;67726;45.636;11.752;2024-02-28T08:41:46;11.90;99.90
78054;DHT22;67726;45.636;11.752;2024-02-28T08:44:11;11.80;99.90
78054;DHT22;67726;45.636;11.752;2024-02-28T08:46:37;11.90;99.90
78054;DHT22;67726;45.636;11.752;2024-02-28T08:49:03;12.00;99.90
78054;DHT22;67726;45.636;11.752;2024-02-28T08:51:28;12.10;99.90
78054;DHT22;67726;45.636;11.752;2024-02-28T08:53:54;12.00;99.90
78054;DHT22;67726;45.636;11.752;2024-02-28T08:56:36;12.10;99.90
78054;DHT22;67726;45.636;11.752;2024-02-28T09:01:37;12.10;99.90
78054;DHT22;67726;45.636;11.752;2024-02-28T09:04:03;12.10;99.90
78054;DHT22;67726;45.636;11.752;2024-02-28T09:06:29;12.10;99.90
78054;DHT22;67726;45.636;11.752;2024-02-28T09:08:54;12.20;99.90
78054;DHT22;67726;45.636;11.752;2024-02-28T09:11:20;12.20;99.90
78054;DHT22;67726;45.636;11.752;2024-02-28T09:13:46;12.10;99.90
78054;DHT22;67726;45.636;11.752;2024-02-28T09:16:11;12.30;99.90
78054;DHT22;67726;45.636;11.752;2024-02-28T09:18:37;12.40;99.90
78054;DHT22;67726;45.636;11.752;2024-02-28T09:21:03;12.40;99.90
78054;DHT22;67726;45.636;11.752;2024-02-28T09:23:29;12.40;99.90
78054;DHT22;67726;45.636;11.752;2024-02-28T09:25:56;12.40;99.90
78054;DHT22;67726;45.636;11.752;2024-02-28T09:28:23;12.50;99.90
78054;DHT22;67726;45.636;11.752;2024-02-28T09:30:48;12.40;99.90
78054;DHT22;67726;45.636;11.752;2024-02-28T09:33:15;12.60;99.90
78054;DHT22;67726;45.636;11.752;2024-02-28T09:35:43;12.50;99.90
78054;DHT22;67726;45.636;11.752;2024-02-28T09:38:08;12.50;99.90
78054;DHT22;67726;45.636;11.752;2024-02-28T09:40:34;12.50;99.90
78054;DHT22;67726;45.636;11.752;2024-02-28T09:43:03;12.60;99.90
78054;DHT22;67726;45.636;11.752;2024-02-28T09:45:30;12.70;99.90
78054;DHT22;67726;45.636;11.752;2024-02-28T09:47:59;12.70;99.90
78054;DHT22;67726;45.636;11.752;2024-02-28T09:50:26;12.80;99.90
78054;DHT22;67726;45.636;11.752;2024-02-28T09:52:53;12.70;99.90
78054;DHT22;67726;45.636;11.752;2024-02-28T09:55:19;12.70;99.90
78054;DHT22;67726;45.636;11.752;2024-02-28T09:57:47;12.80;99.90
78054;DHT22;67726;45.636;11.752;2024-02-28T10:00:15;12.70;99.90
78054;DHT22;67726;45.636;11.752;2024-02-28T10:02:45;12.70;99.90
78054;DHT22;67726;45.636;11.752;2024-02-28T10:05:12;12.70;99.90
78054;DHT22;67726;45.636;11.752;2024-02-28T10:07:38;12.70;99.90
78054;DHT22;67726;45.636;11.752;2024-02-28T10:10:07;12.70;99.90
78054;DHT22;67726;45.636;11.752;2024-02-28T10:12:34;12.70;99.90
78054;DHT22;67726;45.636;11.752;2024-02-28T10:15:03;12.80;99.90
78054;DHT22;67726;45.636;11.752;2024-02-28T10:17:28;12.80;99.90
78054;DHT22;67726;45.636;11.752;2024-02-28T10:19:54;12.70;99.90
78054;DHT22;67726;45.636;11.752;2024-02-28T10:22:20;12.80;99.90
78054;DHT22;67726;45.636;11.752;2024-02-28T10:24:47;12.90;99.90
78054;DHT22;67726;45.636;11.752;2024-02-28T10:27:16;12.90;99.90
78054;DHT22;67726;45.636;11.752;2024-02-28T10:29:42;13.00;99.90
78054;DHT22;67726;45.636;11.752;2024-02-28T10:32:09;13.00;99.90
78054;DHT22;67726;45.636;11.752;2024-02-28T10:34:37;13.10;99.90
78054;DHT22;67726;45.636;11.752;2024-02-28T10:37:05;13.10;99.90
78054;DHT22;67726;45.636;11.752;2024-02-28T10:39:31;13.10;99.90
78054;DHT22;67726;45.636;11.752;2024-02-28T10:41:59;13.10;99.90
78054;DHT22;67726;45.636;11.752;2024-02-28T10:44:26;13.10;99.90
78054;DHT22;67726;45.636;11.752;2024-02-28T10:46:53;13.00;99.90
78054;DHT22;67726;45.636;11.752;2024-02-28T10:51:56;13.10;99.90
78054;DHT22;67726;45.636;11.752;2024-02-28T10:54:25;13.20;99.90
78054;DHT22;67726;45.636;11.752;2024-02-28T10:56:54;13.30;99.90
78054;DHT22;67726;45.636;11.752;2024-02-28T10:59:21;13.40;99.90
78054;DHT22;67726;45.636;11.752;2024-02-28T11:01:48;13.40;99.90
78054;DHT22;67726;45.636;11.752;2024-02-28T11:04:16;13.30;99.90
78054;DHT22;67726;45.636;11.752;2024-02-28T11:06:54;13.30;99.90
78054;DHT22;67726;45.636;11.752;2024-02-28T11:09:25;13.30;99.90
78054;DHT22;67726;45.636;11.752;2024-02-28T11:11:52;13.30;99.90
78054;DHT22;67726;45.636;11.752;2024-02-28T11:14:18;13.20;99.90
78054;DHT22;67726;45.636;11.752;2024-02-28T11:16:48;13.20;99.90
78054;DHT22;67726;45.636;11.752;2024-02-28T11:19:20;13.20;99.90
78054;DHT22;67726;45.636;11.752;2024-02-28T11:21:55;13.10;99.90
78054;DHT22;67726;45.636;11.752;2024-02-28T11:24:29;13.10;99.90
78054;DHT22;67726;45.636;11.752;2024-02-28T11:26:54;13.10;99.90
78054;DHT22;67726;45.636;11.752;2024-02-28T11:29:28;13.10;99.90
78054;DHT22;67726;45.636;11.752;2024-02-28T11:31:56;13.10;99.90
78054;DHT22;67726;45.636;11.752;2024-02-28T11:34:22;13.10;99.90
78054;DHT22;67726;45.636;11.752;2024-02-28T11:36:49;13.20;99.90
78054;DHT22;67726;45.636;11.752;2024-02-28T11:39:15;13.20;99.90
78054;DHT22;67726;45.636;11.752;2024-02-28T11:41:41;13.20;99.90
78054;DHT22;67726;45.636;11.752;2024-02-28T11:44:07;13.20;99.90
78054;DHT22;67726;45.636;11.752;2024-02-28T11:46:33;13.10;99.90
78054;DHT22;67726;45.636;11.752;2024-02-28T11:49:00;13.10;99.90
78054;DHT22;67726;45.636;11.752;2024-02-28T11:51:26;13.10;99.90
78054;DHT22;67726;45.636;11.752;2024-02-28T11:53:52;13.00;99.90
78054;DHT22;67726;45.636;11.752;2024-02-28T11:56:17;13.00;99.90
78054;DHT22;67726;45.636;11.752;2024-02-28T11:58:50;13.10;99.90
78054;DHT22;67726;45.636;11.752;2024-02-28T12:01:16;13.10;99.90
78054;DHT22;67726;45.636;11.752;2024-02-28T12:03:45;13.00;99.90
78054;DHT22;67726;45.636;11.752;2024-02-28T12:06:12;13.00;99.90
78054;DHT22;67726;45.636;11.752;2024-02-28T12:08:38;12.90;99.90
78054;DHT22;67726;45.636;11.752;2024-02-28T12:11:07;12.90;99.90
78054;DHT22;67726;45.636;11.752;2024-02-28T12:13:34;13.00;99.90
78054;DHT22;67726;45.636;11.752;2024-02-28T12:16:01;12.90;99.90
78054;DHT22;67726;45.636;11.752;2024-02-28T12:18:26;13.00;99.90
78054;DHT22;67726;45.636;11.752;2024-02-28T12:20:54;13.10;99.90
78054;DHT22;67726;45.636;11.752;2024-02-28T12:23:19;13.10;99.90
78054;DHT22;67726;45.636;11.752;2024-02-28T12:25:45;13.20;99.90
78054;DHT22;67726;45.636;11.752;2024-02-28T12:31:19;13.20;99.90
78054;DHT22;67726;45.636;11.752;2024-02-28T12:33:47;13.30;99.90
78054;DHT22;67726;45.636;11.752;2024-02-28T12:36:13;13.30;99.90
78054;DHT22;67726;45.636;11.752;2024-02-28T12:38:39;13.30;99.90
78054;DHT22;67726;45.636;11.752;2024-02-28T12:41:06;13.30;99.90
78054;DHT22;67726;45.636;11.752;2024-02-28T12:43:32;13.30;99.90
78054;DHT22;67726;45.636;11.752;2024-02-28T12:46:00;13.30;99.90
78054;DHT22;67726;45.636;11.752;2024-02-28T12:48:27;13.40;99.90
78054;DHT22;67726;45.636;11.752;2024-02-28T12:50:53;13.50;99.90
78054;DHT22;67726;45.636;11.752;2024-02-28T12:53:18;13.40;99.90
78054;DHT22;67726;45.636;11.752;2024-02-28T12:55:44;13.40;99.90
78054;DHT22;67726;45.636;11.752;2024-02-28T12:58:10;13.50;99.90
78054;DHT22;67726;45.636;11.752;2024-02-28T13:00:36;13.60;99.90
78054;DHT22;67726;45.636;11.752;2024-02-28T13:03:18;13.60;99.90
78054;DHT22;67726;45.636;11.752;2024-02-28T13:05:43;13.70;99.90
78054;DHT22;67726;45.636;11.752;2024-02-28T13:08:09;13.80;99.90
78054;DHT22;67726;45.636;11.752;2024-02-28T13:10:35;13.90;99.90
78054;DHT22;67726;45.636;11.752;2024-02-28T13:13:05;13.90;99.90
78054;DHT22;67726;45.636;11.752;2024-02-28T13:15:31;14.00;99.90
78054;DHT22;67726;45.636;11.752;2024-02-28T13:17:57;14.20;99.90
78054;DHT22;67726;45.636;11.752;2024-02-28T13:20:23;14.20;99.90
78054;DHT22;67726;45.636;11.752;2024-02-28T13:22:49;14.30;99.90
78054;DHT22;67726;45.636;11.752;2024-02-28T13:25:15;14.40;99.90
78054;DHT22;67726;45.636;11.752;2024-02-28T13:27:41;14.40;99.90
78054;DHT22;67726;45.636;11.752;2024-02-28T13:30:07;14.60;99.90
78054;DHT22;67726;45.636;11.752;2024-02-28T13:32:33;14.60;99.90
78054;DHT22;67726;45.636;11.752;2024-02-28T13:34:58;14.50;99.90
78054;DHT22;67726;45.636;11.752;2024-02-28T13:37:25;14.50;99.90
78054;DHT22;67726;45.636;11.752;2024-02-28T13:39:51;14.60;99.90
78054;DHT22;67726;45.636;11.752;2024-02-28T13:42:17;14.60;99.90
78054;DHT22;67726;45.636;11.752;2024-02-28T13:44:45;14.60;99.90
78054;DHT22;67726;45.636;11.752;2024-02-28T13:47:15;14.50;99.90
78054;DHT22;67726;45.636;11.752;2024-02-28T13:49:40;14.60;99.90
78054;DHT22;67726;45.636;11.752;2024-02-28T13:52:06;14.40;99.90
78054;DHT22;67726;45.636;11.752;2024-02-28T13:54:32;14.40;99.90
78054;DHT22;67726;45.636;11.752;2024-02-28T13:56:57;14.40;99.90
78054;DHT22;67726;45.636;11.752;2024-02-28T13:59:23;14.30;99.90
78054;DHT22;67726;45.636;11.752;2024-02-28T14:01:50;14.30;99.90
78054;DHT22;67726;45.636;11.752;2024-02-28T14:04:16;14.30;99.90
78054;DHT22;67726;45.636;11.752;2024-02-28T14:06:41;14.30;99.90
78054;DHT22;67726;45.636;11.752;2024-02-28T14:09:07;14.30;99.90
78054;DHT22;67726;45.636;11.752;2024-02-28T14:14:24;14.20;99.90
78054;DHT22;67726;45.636;11.752;2024-02-28T14:16:49;14.30;99.90
78054;DHT22;67726;45.636;11.752;2024-02-28T14:19:15;14.30;99.90
78054;DHT22;67726;45.636;11.752;2024-02-28T14:21:41;14.30;99.90
78054;DHT22;67726;45.636;11.752;2024-02-28T14:24:06;14.30;99.90
78054;DHT22;67726;45.636;11.752;2024-02-28T14:38:32;14.50;99.90
78054;DHT22;67726;45.636;11.752;2024-02-28T14:40:58;14.50;99.90
78054;DHT22;67726;45.636;11.752;2024-02-28T14:43:24;14.70;99.90
78054;DHT22;67726;45.636;11.752;2024-02-28T14:45:49;14.80;99.90
78054;DHT22;67726;45.636;11.752;2024-02-28T14:48:15;14.90;99.90
78054;DHT22;67726;45.636;11.752;2024-02-28T14:50:41;15.00;99.90
78054;DHT22;67726;45.636;11.752;2024-02-28T14:53:07;15.00;99.90
78054;DHT22;67726;45.636;11.752;2024-02-28T14:55:33;15.00;99.90
78054;DHT22;67726;45.636;11.752;2024-02-28T14:57:59;14.90;99.90
78054;DHT22;67726;45.636;11.752;2024-02-28T15:00:25;14.90;99.90
78054;DHT22;67726;45.636;11.752;2024-02-28T15:02:51;14.80;99.90
78054;DHT22;67726;45.636;11.752;2024-02-28T15:05:19;14.90;99.90
78054;DHT22;67726;45.636;11.752;2024-02-28T15:07:45;14.80;99.90
78054;DHT22;67726;45.636;11.752;2024-02-28T15:10:10;14.70;99.90
78054;DHT22;67726;45.636;11.752;2024-02-28T15:12:36;14.70;99.90
78054;DHT22;67726;45.636;11.752;2024-02-28T15:15:04;14.70;99.90
78054;DHT22;67726;45.636;11.752;2024-02-28T15:17:31;14.70;99.90
78054;DHT22;67726;45.636;11.752;2024-02-28T15:19:57;14.60;99.90
78054;DHT22;67726;45.636;11.752;2024-02-28T15:22:23;14.50;99.90
78054;DHT22;67726;45.636;11.752;2024-02-28T15:28:10;14.50;99.90
78054;DHT22;67726;45.636;11.752;2024-02-28T15:30:36;14.50;99.90
78054;DHT22;67726;45.636;11.752;2024-02-28T15:33:02;14.50;99.90
78054;DHT22;67726;45.636;11.752;2024-02-28T15:35:29;14.50;99.90
78054;DHT22;67726;45.636;11.752;2024-02-28T15:37:54;14.50;99.90
78054;DHT22;67726;45.636;11.752;2024-02-28T15:40:20;14.50;99.90
78054;DHT22;67726;45.636;11.752;2024-02-28T15:42:48;14.30;99.90
78054;DHT22;67726;45.636;11.752;2024-02-28T15:45:14;14.40;99.90
78054;DHT22;67726;45.636;11.752;2024-02-28T15:47:43;14.30;99.90
78054;DHT22;67726;45.636;11.752;2024-02-28T15:50:10;14.30;99.90
78054;DHT22;67726;45.636;11.752;2024-02-28T15:52:36;14.20;99.90